sensor_id;sensor_type;location;lat;lon;timestamp;pressure;altitude;pressure_sealevel;temperature;humidity
15314;BME280;7757;52.626;4.746;2023-05-09T00:02:23;101594.16;;;18.60;62.37
15314;BME280;7757;52.626;4.746;2023-05-09T00:05:08;101589.66;;;18.79;62.15
15314;BME280;7757;52.626;4.746;2023-05-09T00:07:54;101570.84;;;18.59;62.37
15314;BME280;7757;52.626;4.746;2023-05-09T00:10:42;101580.38;;;18.68;61.89
15314;BME280;7757;52.626;4.746;2023-05-09T00:13:40;101582.66;;;18.71;62.28
15314;BME280;7757;52.626;4.746;2023-05-09T00:16:30;101582.41;;;18.73;62.33
15314;BME280;7757;52.626;4.746;2023-05-09T00:19:17;101582.59;;;18.47;63.50
15314;BME280;7757;52.626;4.746;2023-05-09T00:22:05;101582.13;;;18.56;63.02
15314;BME280;7757;52.626;4.746;2023-05-09T00:24:52;101584.28;;;18.72;62.56
15314;BME280;7757;52.626;4.746;2023-05-09T00:27:40;101577.56;;;18.57;63.29
15314;BME280;7757;52.626;4.746;2023-05-09T00:30:25;101573.97;;;18.63;62.98
15314;BME280;7757;52.626;4.746;2023-05-09T00:33:11;101570.34;;;18.69;62.75
15314;BME280;7757;52.626;4.746;2023-05-09T00:35:59;101566.34;;;18.47;63.56
15314;BME280;7757;52.626;4.746;2023-05-09T00:38:48;101566.72;;;18.57;63.42
15314;BME280;7757;52.626;4.746;2023-05-09T00:41:33;101564.88;;;18.51;63.74
15314;BME280;7757;52.626;4.746;2023-05-09T00:44:36;101552.94;;;18.58;63.60
15314;BME280;7757;52.626;4.746;2023-05-09T00:47:24;101559.28;;;18.70;63.43
15314;BME280;7757;52.626;4.746;2023-05-09T00:50:11;101548.66;;;18.69;63.30
15314;BME280;7757;52.626;4.746;2023-05-09T00:53:05;101553.09;;;18.63;63.85
15314;BME280;7757;52.626;4.746;2023-05-09T00:55:56;101549.13;;;18.66;63.40
15314;BME280;7757;52.626;4.746;2023-05-09T00:58:47;101539.88;;;18.49;63.89
15314;BME280;7757;52.626;4.746;2023-05-09T01:01:35;101534.47;;;18.49;63.84
15314;BME280;7757;52.626;4.746;2023-05-09T01:04:21;101530.88;;;18.48;64.50
15314;BME280;7757;52.626;4.746;2023-05-09T01:07:10;101521.25;;;18.59;64.04
15314;BME280;7757;52.626;4.746;2023-05-09T01:10:08;101532.13;;;18.52;64.25
15314;BME280;7757;52.626;4.746;2023-05-09T01:13:03;101523.66;;;18.42;64.52
15314;BME280;7757;52.626;4.746;2023-05-09T01:16:02;101519.00;;;18.56;64.28
15314;BME280;7757;52.626;4.746;2023-05-09T01:18:55;101514.56;;;18.61;64.17
15314;BME280;7757;52.626;4.746;2023-05-09T01:21:48;101519.50;;;18.39;64.96
15314;BME280;7757;52.626;4.746;2023-05-09T01:24:58;101506.66;;;18.60;64.65
15314;BME280;7757;52.626;4.746;2023-05-09T01:27:56;101503.34;;;18.58;64.53
15314;BME280;7757;52.626;4.746;2023-05-09T01:30:54;101495.06;;;18.46;64.69
15314;BME280;7757;52.626;4.746;2023-05-09T01:33:41;101501.16;;;18.66;64.34
15314;BME280;7757;52.626;4.746;2023-05-09T01:36:31;101494.03;;;18.72;64.48
15314;BME280;7757;52.626;4.746;2023-05-09T01:39:21;101495.31;;;18.45;65.34
15314;BME280;7757;52.626;4.746;2023-05-09T01:42:11;101488.59;;;18.54;65.15
15314;BME280;7757;52.626;4.746;2023-05-09T01:44:57;101484.81;;;18.55;65.23
15314;BME280;7757;52.626;4.746;2023-05-09T01:47:46;101469.75;;;18.34;65.85
15314;BME280;7757;52.626;4.746;2023-05-09T01:50:34;101470.88;;;18.51;65.62
15314;BME280;7757;52.626;4.746;2023-05-09T01:53:20;101473.69;;;18.38;66.41
15314;BME280;7757;52.626;4.746;2023-05-09T01:56:07;101470.53;;;18.41;66.54
15314;BME280;7757;52.626;4.746;2023-05-09T01:59:01;101469.00;;;18.52;65.91
15314;BME280;7757;52.626;4.746;2023-05-09T02:01:47;101467.97;;;18.46;66.59
15314;BME280;7757;52.626;4.746;2023-05-09T02:04:35;101467.03;;;18.34;66.86
15314;BME280;7757;52.626;4.746;2023-05-09T02:07:22;101461.94;;;18.51;66.61
15314;BME280;7757;52.626;4.746;2023-05-09T02:10:11;101463.06;;;18.36;67.29
15314;BME280;7757;52.626;4.746;2023-05-09T02:12:56;101459.69;;;18.41;67.21
15314;BME280;7757;52.626;4.746;2023-05-09T02:15:42;101447.00;;;18.42;67.03
15314;BME280;7757;52.626;4.746;2023-05-09T02:18:28;101442.41;;;18.42;67.57
15314;BME280;7757;52.626;4.746;2023-05-09T02:21:16;101455.03;;;18.48;67.35
15314;BME280;7757;52.626;4.746;2023-05-09T02:24:02;101442.09;;;18.57;67.14
15314;BME280;7757;52.626;4.746;2023-05-09T02:26:56;101440.75;;;18.41;67.67
15314;BME280;7757;52.626;4.746;2023-05-09T02:29:43;101453.59;;;18.46;67.42
15314;BME280;7757;52.626;4.746;2023-05-09T02:32:33;101444.00;;;18.25;68.59
15314;BME280;7757;52.626;4.746;2023-05-09T02:35:20;101441.31;;;18.50;67.59
15314;BME280;7757;52.626;4.746;2023-05-09T02:38:08;101443.19;;;18.49;67.47
15314;BME280;7757;52.626;4.746;2023-05-09T02:40:54;101440.69;;;18.48;67.52
15314;BME280;7757;52.626;4.746;2023-05-09T02:43:45;101439.31;;;18.38;68.21
15314;BME280;7757;52.626;4.746;2023-05-09T02:46:31;101434.34;;;18.35;68.52
15314;BME280;7757;52.626;4.746;2023-05-09T02:49:16;101436.66;;;18.32;68.63
15314;BME280;7757;52.626;4.746;2023-05-09T02:52:02;101423.59;;;18.47;68.06
15314;BME280;7757;52.626;4.746;2023-05-09T02:54:49;101423.81;;;18.46;67.73
15314;BME280;7757;52.626;4.746;2023-05-09T02:57:34;101422.06;;;18.33;68.42
15314;BME280;7757;52.626;4.746;2023-05-09T03:00:19;101417.03;;;18.36;68.11
15314;BME280;7757;52.626;4.746;2023-05-09T03:03:06;101409.97;;;18.35;68.39
15314;BME280;7757;52.626;4.746;2023-05-09T03:05:52;101415.19;;;18.30;68.36
15314;BME280;7757;52.626;4.746;2023-05-09T03:08:37;101403.13;;;18.33;68.76
15314;BME280;7757;52.626;4.746;2023-05-09T03:11:24;101401.91;;;18.29;68.87
15314;BME280;7757;52.626;4.746;2023-05-09T03:14:09;101399.78;;;18.31;68.56
15314;BME280;7757;52.626;4.746;2023-05-09T03:17:00;101390.28;;;18.22;68.72
15314;BME280;7757;52.626;4.746;2023-05-09T03:19:46;101389.13;;;18.36;68.46
15314;BME280;7757;52.626;4.746;2023-05-09T03:22:35;101386.78;;;18.39;68.33
15314;BME280;7757;52.626;4.746;2023-05-09T03:25:20;101390.03;;;18.30;68.67
15314;BME280;7757;52.626;4.746;2023-05-09T03:28:07;101384.97;;;18.33;68.71
15314;BME280;7757;52.626;4.746;2023-05-09T03:30:53;101387.56;;;18.47;68.44
15314;BME280;7757;52.626;4.746;2023-05-09T03:33:39;101376.09;;;18.26;68.94
15314;BME280;7757;52.626;4.746;2023-05-09T03:36:24;101386.88;;;18.33;68.70
15314;BME280;7757;52.626;4.746;2023-05-09T03:39:09;101379.50;;;18.40;68.39
15314;BME280;7757;52.626;4.746;2023-05-09T03:41:55;101367.47;;;18.36;68.28
15314;BME280;7757;52.626;4.746;2023-05-09T03:44:42;101364.81;;;18.29;68.17
15314;BME280;7757;52.626;4.746;2023-05-09T03:47:27;101361.75;;;18.44;68.00
15314;BME280;7757;52.626;4.746;2023-05-09T03:50:16;101362.25;;;18.34;68.29
15314;BME280;7757;52.626;4.746;2023-05-09T03:53:04;101358.19;;;18.25;68.78
15314;BME280;7757;52.626;4.746;2023-05-09T03:55:50;101350.75;;;18.21;69.06
15314;BME280;7757;52.626;4.746;2023-05-09T03:58:35;101350.44;;;18.29;68.72
15314;BME280;7757;52.626;4.746;2023-05-09T04:01:22;101347.09;;;18.09;69.42
15314;BME280;7757;52.626;4.746;2023-05-09T04:04:07;101344.69;;;18.19;69.16
15314;BME280;7757;52.626;4.746;2023-05-09T04:06:55;101342.00;;;18.19;69.11
15314;BME280;7757;52.626;4.746;2023-05-09T04:09:53;101342.31;;;18.29;68.96
15314;BME280;7757;52.626;4.746;2023-05-09T04:12:45;101335.19;;;18.34;68.31
15314;BME280;7757;52.626;4.746;2023-05-09T04:15:31;101340.53;;;18.41;68.11
15314;BME280;7757;52.626;4.746;2023-05-09T04:18:18;101338.72;;;18.35;68.52
15314;BME280;7757;52.626;4.746;2023-05-09T04:21:03;101338.09;;;18.15;69.33
15314;BME280;7757;52.626;4.746;2023-05-09T04:23:52;101334.06;;;18.24;68.59
15314;BME280;7757;52.626;4.746;2023-05-09T04:26:37;101324.56;;;18.15;69.08
15314;BME280;7757;52.626;4.746;2023-05-09T04:29:25;101327.56;;;18.25;68.58
15314;BME280;7757;52.626;4.746;2023-05-09T04:32:13;101318.19;;;18.27;68.57
15314;BME280;7757;52.626;4.746;2023-05-09T04:35:00;101317.56;;;18.25;69.16
15314;BME280;7757;52.626;4.746;2023-05-09T04:37:50;101312.22;;;18.37;68.42
15314;BME280;7757;52.626;4.746;2023-05-09T04:40:38;101312.53;;;18.29;68.48
15314;BME280;7757;52.626;4.746;2023-05-09T04:43:24;101313.38;;;18.29;68.42
15314;BME280;7757;52.626;4.746;2023-05-09T04:46:11;101303.81;;;18.27;68.76
15314;BME280;7757;52.626;4.746;2023-05-09T04:48:56;101303.13;;;18.31;68.33
15314;BME280;7757;52.626;4.746;2023-05-09T04:51:43;101307.50;;;18.32;68.62
15314;BME280;7757;52.626;4.746;2023-05-09T04:54:34;101298.84;;;18.42;68.16
15314;BME280;7757;52.626;4.746;2023-05-09T04:57:23;101303.19;;;18.25;68.67
15314;BME280;7757;52.626;4.746;2023-05-09T05:00:09;101299.59;;;18.31;68.33
15314;BME280;7757;52.626;4.746;2023-05-09T05:02:55;101302.97;;;18.26;68.62
15314;BME280;7757;52.626;4.746;2023-05-09T05:05:40;101293.66;;;18.22;68.96
15314;BME280;7757;52.626;4.746;2023-05-09T05:08:27;101284.75;;;18.33;68.52
15314;BME280;7757;52.626;4.746;2023-05-09T05:11:15;101284.47;;;18.42;68.00
15314;BME280;7757;52.626;4.746;2023-05-09T05:14:01;101279.66;;;18.25;68.68
15314;BME280;7757;52.626;4.746;2023-05-09T05:16:48;101272.50;;;18.31;68.72
15314;BME280;7757;52.626;4.746;2023-05-09T05:19:34;101281.41;;;18.38;68.46
15314;BME280;7757;52.626;4.746;2023-05-09T05:22:19;101260.94;;;18.42;67.91
15314;BME280;7757;52.626;4.746;2023-05-09T05:25:07;101270.25;;;18.46;67.94
15314;BME280;7757;52.626;4.746;2023-05-09T05:27:52;101269.34;;;18.34;68.47
15314;BME280;7757;52.626;4.746;2023-05-09T05:30:41;101283.13;;;18.32;68.41
15314;BME280;7757;52.626;4.746;2023-05-09T05:33:26;101268.88;;;18.19;69.32
15314;BME280;7757;52.626;4.746;2023-05-09T05:36:12;101260.94;;;18.24;69.33
15314;BME280;7757;52.626;4.746;2023-05-09T05:38:57;101263.94;;;18.16;69.82
15314;BME280;7757;52.626;4.746;2023-05-09T05:41:44;101252.50;;;18.14;70.02
15314;BME280;7757;52.626;4.746;2023-05-09T05:44:29;101252.06;;;18.35;69.17
15314;BME280;7757;52.626;4.746;2023-05-09T05:47:15;101263.56;;;18.30;69.02
15314;BME280;7757;52.626;4.746;2023-05-09T05:50:02;101261.22;;;18.34;69.16
15314;BME280;7757;52.626;4.746;2023-05-09T05:52:49;101251.09;;;18.11;69.67
15314;BME280;7757;52.626;4.746;2023-05-09T05:55:34;101252.56;;;18.07;70.19
15314;BME280;7757;52.626;4.746;2023-05-09T05:58:23;101244.38;;;18.32;69.22
15314;BME280;7757;52.626;4.746;2023-05-09T06:01:14;101236.19;;;18.20;69.49
15314;BME280;7757;52.626;4.746;2023-05-09T06:04:00;101232.81;;;18.07;69.99
15314;BME280;7757;52.626;4.746;2023-05-09T06:06:45;101236.72;;;18.29;69.06
15314;BME280;7757;52.626;4.746;2023-05-09T06:09:31;101233.88;;;18.24;69.31
15314;BME280;7757;52.626;4.746;2023-05-09T06:12:16;101234.16;;;18.16;69.86
15314;BME280;7757;52.626;4.746;2023-05-09T06:15:07;101223.69;;;18.19;69.26
15314;BME280;7757;52.626;4.746;2023-05-09T06:17:52;101226.25;;;18.32;69.19
15314;BME280;7757;52.626;4.746;2023-05-09T06:20:38;101219.56;;;18.17;69.71
15314;BME280;7757;52.626;4.746;2023-05-09T06:23:23;101214.56;;;18.68;69.02
15314;BME280;7757;52.626;4.746;2023-05-09T06:26:09;101215.19;;;18.82;68.45
15314;BME280;7757;52.626;4.746;2023-05-09T06:28:54;101203.53;;;18.81;68.73
15314;BME280;7757;52.626;4.746;2023-05-09T06:31:41;101204.13;;;18.83;67.91
15314;BME280;7757;52.626;4.746;2023-05-09T06:34:27;101203.00;;;19.03;67.83
15314;BME280;7757;52.626;4.746;2023-05-09T06:37:12;101197.84;;;19.13;67.23
15314;BME280;7757;52.626;4.746;2023-05-09T06:40:05;101196.19;;;19.12;67.73
15314;BME280;7757;52.626;4.746;2023-05-09T06:42:51;101193.13;;;19.20;67.11
15314;BME280;7757;52.626;4.746;2023-05-09T06:45:36;101183.56;;;19.17;67.05
15314;BME280;7757;52.626;4.746;2023-05-09T06:48:26;101185.09;;;19.13;67.45
15314;BME280;7757;52.626;4.746;2023-05-09T06:51:11;101184.94;;;18.97;67.67
15314;BME280;7757;52.626;4.746;2023-05-09T06:53:57;101182.75;;;19.28;66.90
15314;BME280;7757;52.626;4.746;2023-05-09T06:56:42;101183.94;;;19.09;67.00
15314;BME280;7757;52.626;4.746;2023-05-09T06:59:30;101162.44;;;19.08;67.03
15314;BME280;7757;52.626;4.746;2023-05-09T07:02:19;101171.78;;;19.23;67.23
15314;BME280;7757;52.626;4.746;2023-05-09T07:05:06;101179.47;;;19.26;66.74
15314;BME280;7757;52.626;4.746;2023-05-09T07:07:52;101176.31;;;19.41;66.24
15314;BME280;7757;52.626;4.746;2023-05-09T07:10:38;101169.59;;;19.43;65.99
15314;BME280;7757;52.626;4.746;2023-05-09T07:13:23;101172.16;;;19.38;66.48
15314;BME280;7757;52.626;4.746;2023-05-09T07:16:08;101162.13;;;19.27;66.78
15314;BME280;7757;52.626;4.746;2023-05-09T07:18:57;101149.38;;;19.28;66.68
15314;BME280;7757;52.626;4.746;2023-05-09T07:21:44;101163.19;;;19.26;67.22
15314;BME280;7757;52.626;4.746;2023-05-09T07:24:32;101151.41;;;19.32;66.77
15314;BME280;7757;52.626;4.746;2023-05-09T07:27:17;101150.47;;;19.50;66.51
15314;BME280;7757;52.626;4.746;2023-05-09T07:30:03;101155.19;;;19.55;66.11
15314;BME280;7757;52.626;4.746;2023-05-09T07:32:54;101149.91;;;19.48;66.56
15314;BME280;7757;52.626;4.746;2023-05-09T07:35:40;101136.44;;;19.30;66.79
15314;BME280;7757;52.626;4.746;2023-05-09T07:38:27;101132.44;;;19.44;66.50
15314;BME280;7757;52.626;4.746;2023-05-09T07:41:12;101138.44;;;19.46;66.36
15314;BME280;7757;52.626;4.746;2023-05-09T07:44:00;101137.28;;;19.42;66.56
15314;BME280;7757;52.626;4.746;2023-05-09T07:46:46;101134.09;;;19.45;66.19
15314;BME280;7757;52.626;4.746;2023-05-09T07:49:34;101129.13;;;19.54;65.92
15314;BME280;7757;52.626;4.746;2023-05-09T07:52:20;101125.94;;;19.57;65.75
15314;BME280;7757;52.626;4.746;2023-05-09T07:55:07;101116.16;;;19.44;66.06
15314;BME280;7757;52.626;4.746;2023-05-09T07:57:55;101115.78;;;19.64;65.59
15314;BME280;7757;52.626;4.746;2023-05-09T08:00:42;101105.16;;;19.62;65.45
15314;BME280;7757;52.626;4.746;2023-05-09T08:03:28;101112.84;;;19.65;65.62
15314;BME280;7757;52.626;4.746;2023-05-09T08:06:13;101103.50;;;19.73;64.93
15314;BME280;7757;52.626;4.746;2023-05-09T08:09:04;101096.19;;;19.73;64.88
15314;BME280;7757;52.626;4.746;2023-05-09T08:11:51;101092.06;;;19.71;65.13
15314;BME280;7757;52.626;4.746;2023-05-09T08:14:36;101090.53;;;19.75;65.05
15314;BME280;7757;52.626;4.746;2023-05-09T08:17:24;101090.53;;;19.75;64.82
15314;BME280;7757;52.626;4.746;2023-05-09T08:20:13;101072.50;;;19.57;65.17
15314;BME280;7757;52.626;4.746;2023-05-09T08:22:58;101074.84;;;19.65;64.79
15314;BME280;7757;52.626;4.746;2023-05-09T08:25:44;101072.81;;;19.72;64.76
15314;BME280;7757;52.626;4.746;2023-05-09T08:28:31;101068.06;;;19.79;64.78
15314;BME280;7757;52.626;4.746;2023-05-09T08:31:16;101067.38;;;19.84;64.71
15314;BME280;7757;52.626;4.746;2023-05-09T08:34:02;101069.59;;;19.75;65.09
15314;BME280;7757;52.626;4.746;2023-05-09T08:36:47;101060.03;;;19.84;64.41
15314;BME280;7757;52.626;4.746;2023-05-09T08:39:36;101056.91;;;19.64;65.14
15314;BME280;7757;52.626;4.746;2023-05-09T08:42:21;101061.69;;;19.45;65.71
15314;BME280;7757;52.626;4.746;2023-05-09T08:45:10;101052.66;;;19.96;64.61
15314;BME280;7757;52.626;4.746;2023-05-09T08:48:01;101056.25;;;20.14;64.00
15314;BME280;7757;52.626;4.746;2023-05-09T08:50:47;101062.03;;;20.17;63.52
15314;BME280;7757;52.626;4.746;2023-05-09T08:53:33;101054.69;;;20.18;63.90
15314;BME280;7757;52.626;4.746;2023-05-09T08:56:18;101052.06;;;20.23;63.31
15314;BME280;7757;52.626;4.746;2023-05-09T08:59:04;101049.56;;;20.33;63.14
15314;BME280;7757;52.626;4.746;2023-05-09T09:01:52;101045.88;;;20.39;63.06
15314;BME280;7757;52.626;4.746;2023-05-09T09:04:37;101047.28;;;20.41;62.52
15314;BME280;7757;52.626;4.746;2023-05-09T09:07:24;101041.94;;;20.46;62.44
15314;BME280;7757;52.626;4.746;2023-05-09T09:10:14;101041.34;;;20.44;63.04
15314;BME280;7757;52.626;4.746;2023-05-09T09:13:03;101038.00;;;20.54;62.04
15314;BME280;7757;52.626;4.746;2023-05-09T09:15:52;101032.91;;;20.57;62.02
15314;BME280;7757;52.626;4.746;2023-05-09T09:18:39;101028.53;;;20.56;62.38
15314;BME280;7757;52.626;4.746;2023-05-09T09:21:24;101031.31;;;20.62;61.70
15314;BME280;7757;52.626;4.746;2023-05-09T09:24:12;101025.81;;;20.56;62.17
15314;BME280;7757;52.626;4.746;2023-05-09T09:27:04;101021.75;;;20.59;61.54
15314;BME280;7757;52.626;4.746;2023-05-09T09:29:50;101019.06;;;20.42;62.33
15314;BME280;7757;52.626;4.746;2023-05-09T09:32:35;101015.34;;;20.48;62.00
15314;BME280;7757;52.626;4.746;2023-05-09T09:35:22;101007.00;;;20.55;61.43
15314;BME280;7757;52.626;4.746;2023-05-09T09:38:07;101017.31;;;20.53;61.71
15314;BME280;7757;52.626;4.746;2023-05-09T09:40:56;101016.25;;;20.54;61.69
15314;BME280;7757;52.626;4.746;2023-05-09T09:43:44;101012.88;;;20.64;61.96
15314;BME280;7757;52.626;4.746;2023-05-09T09:46:42;101008.75;;;20.61;61.32
15314;BME280;7757;52.626;4.746;2023-05-09T09:49:27;101007.69;;;20.62;61.58
15314;BME280;7757;52.626;4.746;2023-05-09T09:52:21;101011.28;;;20.68;61.60
15314;BME280;7757;52.626;4.746;2023-05-09T09:55:07;100996.47;;;20.58;61.34
15314;BME280;7757;52.626;4.746;2023-05-09T09:57:53;101004.97;;;20.62;61.02
15314;BME280;7757;52.626;4.746;2023-05-09T10:00:39;101001.75;;;20.65;60.61
15314;BME280;7757;52.626;4.746;2023-05-09T10:03:24;100996.81;;;20.62;60.79
15314;BME280;7757;52.626;4.746;2023-05-09T10:06:18;100995.50;;;20.48;61.14
15314;BME280;7757;52.626;4.746;2023-05-09T10:09:05;100992.94;;;20.41;61.79
15314;BME280;7757;52.626;4.746;2023-05-09T10:11:52;100991.06;;;20.42;61.27
15314;BME280;7757;52.626;4.746;2023-05-09T10:14:39;100996.78;;;20.29;61.82
15314;BME280;7757;52.626;4.746;2023-05-09T10:17:26;100989.56;;;20.34;61.61
15314;BME280;7757;52.626;4.746;2023-05-09T10:20:15;100986.13;;;20.39;61.27
15314;BME280;7757;52.626;4.746;2023-05-09T10:23:02;100989.81;;;20.33;61.35
15314;BME280;7757;52.626;4.746;2023-05-09T10:25:56;100983.63;;;20.37;61.57
15314;BME280;7757;52.626;4.746;2023-05-09T10:28:44;100979.19;;;20.31;62.75
15314;BME280;7757;52.626;4.746;2023-05-09T10:31:31;100986.25;;;20.49;62.22
15314;BME280;7757;52.626;4.746;2023-05-09T10:34:20;100973.44;;;20.44;62.38
15314;BME280;7757;52.626;4.746;2023-05-09T10:37:07;100973.19;;;20.46;61.95
15314;BME280;7757;52.626;4.746;2023-05-09T10:39:53;100970.28;;;20.52;62.18
15314;BME280;7757;52.626;4.746;2023-05-09T10:42:41;100963.63;;;20.60;62.21
15314;BME280;7757;52.626;4.746;2023-05-09T10:45:27;100957.69;;;20.63;61.67
15314;BME280;7757;52.626;4.746;2023-05-09T10:48:12;100955.81;;;20.64;61.82
15314;BME280;7757;52.626;4.746;2023-05-09T10:50:58;100950.94;;;20.66;61.18
15314;BME280;7757;52.626;4.746;2023-05-09T10:53:45;100953.72;;;20.71;61.23
15314;BME280;7757;52.626;4.746;2023-05-09T10:56:33;100949.13;;;20.71;61.54
15314;BME280;7757;52.626;4.746;2023-05-09T10:59:34;100948.28;;;20.71;61.39
15314;BME280;7757;52.626;4.746;2023-05-09T11:02:20;100938.56;;;20.75;61.38
15314;BME280;7757;52.626;4.746;2023-05-09T11:05:14;100945.97;;;20.79;61.30
15314;BME280;7757;52.626;4.746;2023-05-09T11:08:20;100929.41;;;20.81;61.03
15314;BME280;7757;52.626;4.746;2023-05-09T11:11:06;100943.91;;;20.86;60.77
15314;BME280;7757;52.626;4.746;2023-05-09T11:13:56;100934.47;;;20.94;60.55
15314;BME280;7757;52.626;4.746;2023-05-09T11:16:57;100923.28;;;20.90;60.41
15314;BME280;7757;52.626;4.746;2023-05-09T11:19:59;100930.88;;;20.88;60.44
15314;BME280;7757;52.626;4.746;2023-05-09T11:22:46;100921.31;;;20.86;60.60
15314;BME280;7757;52.626;4.746;2023-05-09T11:25:31;100923.69;;;20.99;60.32
15314;BME280;7757;52.626;4.746;2023-05-09T11:28:25;100911.16;;;20.98;60.41
15314;BME280;7757;52.626;4.746;2023-05-09T11:31:13;100915.06;;;21.07;60.51
15314;BME280;7757;52.626;4.746;2023-05-09T11:34:01;100915.06;;;21.07;60.05
15314;BME280;7757;52.626;4.746;2023-05-09T11:36:49;100910.47;;;21.07;60.35
15314;BME280;7757;52.626;4.746;2023-05-09T11:40:05;100904.66;;;20.99;60.81
15314;BME280;7757;52.626;4.746;2023-05-09T11:42:52;100901.16;;;21.03;60.01
15314;BME280;7757;52.626;4.746;2023-05-09T11:45:39;100886.53;;;20.88;60.65
15314;BME280;7757;52.626;4.746;2023-05-09T11:48:25;100895.22;;;21.06;59.72
15314;BME280;7757;52.626;4.746;2023-05-09T11:51:17;100892.44;;;21.01;60.52
15314;BME280;7757;52.626;4.746;2023-05-09T11:54:03;100889.53;;;21.08;60.33
15314;BME280;7757;52.626;4.746;2023-05-09T11:56:48;100887.44;;;21.15;60.32
15314;BME280;7757;52.626;4.746;2023-05-09T11:59:34;100874.91;;;21.14;60.26
15314;BME280;7757;52.626;4.746;2023-05-09T12:02:20;100882.34;;;21.19;60.11
15314;BME280;7757;52.626;4.746;2023-05-09T12:05:08;100879.41;;;21.25;59.54
15314;BME280;7757;52.626;4.746;2023-05-09T12:08:02;100877.25;;;21.27;59.99
15314;BME280;7757;52.626;4.746;2023-05-09T12:10:48;100862.50;;;21.23;59.47
15314;BME280;7757;52.626;4.746;2023-05-09T12:13:33;100864.16;;;21.24;59.78
15314;BME280;7757;52.626;4.746;2023-05-09T12:16:19;100868.22;;;21.22;59.69
15314;BME280;7757;52.626;4.746;2023-05-09T12:19:04;100866.88;;;21.24;59.75
15314;BME280;7757;52.626;4.746;2023-05-09T12:21:53;100853.56;;;21.23;59.51
15314;BME280;7757;52.626;4.746;2023-05-09T12:24:41;100848.72;;;21.30;59.45
15314;BME280;7757;52.626;4.746;2023-05-09T12:27:26;100862.63;;;21.33;59.55
15314;BME280;7757;52.626;4.746;2023-05-09T12:30:12;100852.47;;;21.24;59.41
15314;BME280;7757;52.626;4.746;2023-05-09T12:32:59;100842.75;;;21.33;59.49
15314;BME280;7757;52.626;4.746;2023-05-09T12:35:45;100852.25;;;21.30;59.54
15314;BME280;7757;52.626;4.746;2023-05-09T12:38:30;100850.84;;;21.23;59.78
15314;BME280;7757;52.626;4.746;2023-05-09T12:41:17;100840.69;;;21.18;59.71
15314;BME280;7757;52.626;4.746;2023-05-09T12:44:03;100840.06;;;21.11;59.88
15314;BME280;7757;52.626;4.746;2023-05-09T12:46:53;100842.69;;;21.23;61.13
15314;BME280;7757;52.626;4.746;2023-05-09T12:49:39;100844.72;;;21.37;60.88
15314;BME280;7757;52.626;4.746;2023-05-09T12:52:24;100837.44;;;21.43;60.13
15314;BME280;7757;52.626;4.746;2023-05-09T12:55:11;100830.31;;;21.37;60.03
15314;BME280;7757;52.626;4.746;2023-05-09T12:57:59;100827.31;;;21.38;59.79
15314;BME280;7757;52.626;4.746;2023-05-09T13:00:48;100830.09;;;21.43;60.10
15314;BME280;7757;52.626;4.746;2023-05-09T13:03:33;100827.63;;;21.42;59.64
15314;BME280;7757;52.626;4.746;2023-05-09T13:06:24;100829.50;;;21.41;59.92
15314;BME280;7757;52.626;4.746;2023-05-09T13:09:10;100833.06;;;21.42;60.30
15314;BME280;7757;52.626;4.746;2023-05-09T13:11:55;100831.41;;;21.41;59.88
15314;BME280;7757;52.626;4.746;2023-05-09T13:14:45;100824.09;;;21.46;60.04
15314;BME280;7757;52.626;4.746;2023-05-09T13:17:30;100820.66;;;21.56;59.46
15314;BME280;7757;52.626;4.746;2023-05-09T13:20:16;100827.81;;;21.62;59.35
15314;BME280;7757;52.626;4.746;2023-05-09T13:23:02;100817.69;;;21.57;59.28
15314;BME280;7757;52.626;4.746;2023-05-09T13:25:47;100816.88;;;21.57;59.01
15314;BME280;7757;52.626;4.746;2023-05-09T13:28:33;100815.84;;;21.63;58.90
15314;BME280;7757;52.626;4.746;2023-05-09T13:31:20;100809.84;;;21.61;59.18
15314;BME280;7757;52.626;4.746;2023-05-09T13:34:05;100809.84;;;21.61;58.87
15314;BME280;7757;52.626;4.746;2023-05-09T13:36:50;100804.34;;;21.29;59.20
15314;BME280;7757;52.626;4.746;2023-05-09T13:39:36;100807.91;;;21.30;59.22
15314;BME280;7757;52.626;4.746;2023-05-09T13:42:21;100804.31;;;21.51;59.46
15314;BME280;7757;52.626;4.746;2023-05-09T13:45:08;100798.06;;;21.55;59.14
15314;BME280;7757;52.626;4.746;2023-05-09T13:47:58;100797.56;;;21.58;59.07
15314;BME280;7757;52.626;4.746;2023-05-09T13:50:46;100802.22;;;21.63;59.36
15314;BME280;7757;52.626;4.746;2023-05-09T13:53:32;100792.75;;;21.70;58.77
15314;BME280;7757;52.626;4.746;2023-05-09T13:56:17;100788.44;;;21.75;58.37
15314;BME280;7757;52.626;4.746;2023-05-09T13:59:05;100792.00;;;21.75;59.02
15314;BME280;7757;52.626;4.746;2023-05-09T14:01:51;100780.59;;;21.78;59.21
15314;BME280;7757;52.626;4.746;2023-05-09T14:04:38;100782.69;;;21.71;59.31
15314;BME280;7757;52.626;4.746;2023-05-09T14:07:23;100779.22;;;21.76;59.25
15314;BME280;7757;52.626;4.746;2023-05-09T14:10:09;100773.97;;;21.69;58.46
15314;BME280;7757;52.626;4.746;2023-05-09T14:12:54;100781.22;;;21.58;59.16
15314;BME280;7757;52.626;4.746;2023-05-09T14:15:40;100768.75;;;21.62;59.04
15314;BME280;7757;52.626;4.746;2023-05-09T14:18:25;100775.88;;;21.68;58.65
15314;BME280;7757;52.626;4.746;2023-05-09T14:21:12;100769.81;;;21.61;59.14
15314;BME280;7757;52.626;4.746;2023-05-09T14:23:57;100769.88;;;21.66;59.21
15314;BME280;7757;52.626;4.746;2023-05-09T14:26:45;100758.66;;;21.58;58.46
15314;BME280;7757;52.626;4.746;2023-05-09T14:29:30;100758.72;;;21.36;58.41
15314;BME280;7757;52.626;4.746;2023-05-09T14:32:16;100754.25;;;21.52;58.56
15314;BME280;7757;52.626;4.746;2023-05-09T14:35:01;100760.22;;;21.49;58.56
15314;BME280;7757;52.626;4.746;2023-05-09T14:37:48;100753.47;;;21.25;58.30
15314;BME280;7757;52.626;4.746;2023-05-09T14:40:36;100745.53;;;21.23;58.87
15314;BME280;7757;52.626;4.746;2023-05-09T14:43:28;100743.63;;;21.55;59.26
15314;BME280;7757;52.626;4.746;2023-05-09T14:46:16;100744.00;;;21.64;59.25
15314;BME280;7757;52.626;4.746;2023-05-09T14:49:05;100739.94;;;21.66;59.46